Pagrindinis puslapis
METAR-TAF:

METAR-TAF

Oro uostai :

Montichiari

Breša, Italija

platuma: 45-24-02N, ilguma: 010-18-59E, Aukštis: 104 m

Dabartinis oras

Ataskaita buvo paskelbta 1 valandą ir 9 minutes, ne 22:50 UTC
Ramus vėjas
Temperatūra 12°C
Drėgmė 35%
Slėgis 1029 hPa
Matomumas 10 km arba daugiau
nėra debesų žemiau 1500 m ir nėra kamuolinių lietaus debesų

METAR: LIPO 072250Z 00000KT CAVOK 12/M03 Q1029

Laikas: 01:59 (23:59 UTC)

Prognozė

Ataskaita buvo paskelbta 26 valandos ir 41 minutes, ne 21:18 UTC
Prognozė galioja nuo 06 metu 18 UTC su 07 metu 18 UTC
Vėjas 5 kt nuo kintamojo kryptimis
Matomumas 10 km arba daugiau
nėra debesų žemiau 1500 m ir nėra kamuolinių lietaus debesų

TAF: LIPO 062118Z 0618/0718 VRB05KT CAVOK

Orai ataskaitas ir orų prognozės (METAR, TAF).

turimą stotys yra geltonos ir raudonos taškus žemėlapyje.

Perkelti pele per norėdami pamatyti stoties vardą.

Tada spustelėkite, norėdami matyti oro stebėjimo ir prognozės.

Norėdami pakeisti žemėlapį: spustelėkite ant žalios mygtukų su juodo kryžiaus žemyn,; žalią mygtuką su brūkšneliu, jei norite nutolinti; arba žalių rodyklių gretimoms žemėlapius.


METAR-TAF: